sensor_id;sensor_type;location;lat;lon;timestamp;P1;durP1;ratioP1;P2;durP2;ratioP2
11241;SDS011;5678;52.370;9.006;2023-02-15T03:19:10;0.70;;;0.70;;
11241;SDS011;5678;52.370;9.006;2023-02-15T03:21:43;1.10;;;1.10;;
11241;SDS011;5678;52.370;9.006;2023-02-15T03:24:24;1.00;;;1.00;;
11241;SDS011;5678;52.370;9.006;2023-02-15T03:26:56;0.77;;;0.77;;
11241;SDS011;5678;52.370;9.006;2023-02-15T03:29:25;1.10;;;1.10;;
11241;SDS011;5678;52.370;9.006;2023-02-15T03:31:56;1.10;;;1.10;;
11241;SDS011;5678;52.370;9.006;2023-02-15T03:34:29;0.90;;;0.90;;
11241;SDS011;5678;52.370;9.006;2023-02-15T03:36:58;0.90;;;0.90;;
11241;SDS011;5678;52.370;9.006;2023-02-15T03:39:33;0.80;;;0.80;;
11241;SDS011;5678;52.370;9.006;2023-02-15T03:42:07;1.00;;;1.00;;
11241;SDS011;5678;52.370;9.006;2023-02-15T03:47:25;0.97;;;0.97;;
11241;SDS011;5678;52.370;9.006;2023-02-15T03:49:57;1.07;;;1.07;;
11241;SDS011;5678;52.370;9.006;2023-02-15T03:52:29;0.90;;;0.90;;
11241;SDS011;5678;52.370;9.006;2023-02-15T03:54:58;1.10;;;1.10;;
11241;SDS011;5678;52.370;9.006;2023-02-15T03:57:27;1.00;;;1.00;;
11241;SDS011;5678;52.370;9.006;2023-02-15T04:00:14;1.10;;;1.10;;
11241;SDS011;5678;52.370;9.006;2023-02-15T04:03:09;1.03;;;1.03;;
11241;SDS011;5678;52.370;9.006;2023-02-15T04:05:47;1.03;;;1.03;;
11241;SDS011;5678;52.370;9.006;2023-02-15T04:08:15;0.70;;;0.70;;
11241;SDS011;5678;52.370;9.006;2023-02-15T04:10:43;0.87;;;0.87;;
11241;SDS011;5678;52.370;9.006;2023-02-15T04:13:19;1.20;;;1.20;;
11241;SDS011;5678;52.370;9.006;2023-02-15T04:15:48;1.00;;;1.00;;
11241;SDS011;5678;52.370;9.006;2023-02-15T04:18:33;1.00;;;1.00;;
11241;SDS011;5678;52.370;9.006;2023-02-15T04:21:21;0.97;;;0.97;;
11241;SDS011;5678;52.370;9.006;2023-02-15T04:24:08;1.27;;;1.27;;
11241;SDS011;5678;52.370;9.006;2023-02-15T04:26:54;1.00;;;1.00;;
11241;SDS011;5678;52.370;9.006;2023-02-15T04:29:23;1.03;;;1.03;;
11241;SDS011;5678;52.370;9.006;2023-02-15T04:31:52;1.10;;;1.10;;
11241;SDS011;5678;52.370;9.006;2023-02-15T04:34:22;1.10;;;1.10;;
11241;SDS011;5678;52.370;9.006;2023-02-15T04:36:51;1.27;;;1.27;;
11241;SDS011;5678;52.370;9.006;2023-02-15T04:39:19;1.17;;;1.17;;
11241;SDS011;5678;52.370;9.006;2023-02-15T04:41:47;0.90;;;0.90;;
11241;SDS011;5678;52.370;9.006;2023-02-15T04:44:15;1.00;;;1.00;;
11241;SDS011;5678;52.370;9.006;2023-02-15T04:46:43;0.90;;;0.90;;
11241;SDS011;5678;52.370;9.006;2023-02-15T04:49:11;1.00;;;1.00;;
11241;SDS011;5678;52.370;9.006;2023-02-15T04:51:39;1.10;;;1.10;;
11241;SDS011;5678;52.370;9.006;2023-02-15T04:54:08;0.77;;;0.77;;
11241;SDS011;5678;52.370;9.006;2023-02-15T04:56:36;0.90;;;0.90;;
11241;SDS011;5678;52.370;9.006;2023-02-15T04:59:05;1.30;;;1.30;;
11241;SDS011;5678;52.370;9.006;2023-02-15T05:01:33;1.10;;;1.10;;
11241;SDS011;5678;52.370;9.006;2023-02-15T05:04:01;0.90;;;0.90;;
11241;SDS011;5678;52.370;9.006;2023-02-15T05:06:29;1.20;;;1.20;;
11241;SDS011;5678;52.370;9.006;2023-02-15T05:08:57;1.23;;;1.23;;
11241;SDS011;5678;52.370;9.006;2023-02-15T05:11:26;1.00;;;1.00;;
11241;SDS011;5678;52.370;9.006;2023-02-15T05:13:54;1.10;;;1.10;;
11241;SDS011;5678;52.370;9.006;2023-02-15T05:16:22;1.17;;;1.17;;
11241;SDS011;5678;52.370;9.006;2023-02-15T05:18:51;0.90;;;0.90;;
11241;SDS011;5678;52.370;9.006;2023-02-15T05:21:19;1.13;;;1.13;;
11241;SDS011;5678;52.370;9.006;2023-02-15T05:23:47;1.10;;;1.10;;
11241;SDS011;5678;52.370;9.006;2023-02-15T05:26:16;1.30;;;1.30;;
11241;SDS011;5678;52.370;9.006;2023-02-15T05:29:04;1.03;;;1.03;;
11241;SDS011;5678;52.370;9.006;2023-02-15T05:31:33;1.00;;;1.00;;
11241;SDS011;5678;52.370;9.006;2023-02-15T05:34:02;1.30;;;1.30;;
11241;SDS011;5678;52.370;9.006;2023-02-15T05:36:30;0.90;;;0.90;;
11241;SDS011;5678;52.370;9.006;2023-02-15T05:38:58;1.30;;;1.30;;
11241;SDS011;5678;52.370;9.006;2023-02-15T05:41:26;1.10;;;1.10;;
11241;SDS011;5678;52.370;9.006;2023-02-15T05:43:54;1.00;;;1.00;;
11241;SDS011;5678;52.370;9.006;2023-02-15T05:46:24;1.10;;;1.10;;
11241;SDS011;5678;52.370;9.006;2023-02-15T05:48:52;1.30;;;1.30;;
11241;SDS011;5678;52.370;9.006;2023-02-15T05:51:20;1.37;;;1.37;;
11241;SDS011;5678;52.370;9.006;2023-02-15T05:53:48;1.10;;;1.10;;
11241;SDS011;5678;52.370;9.006;2023-02-15T05:56:16;1.10;;;1.10;;
11241;SDS011;5678;52.370;9.006;2023-02-15T05:58:43;1.13;;;1.13;;
11241;SDS011;5678;52.370;9.006;2023-02-15T06:01:12;1.07;;;1.07;;
11241;SDS011;5678;52.370;9.006;2023-02-15T06:03:43;1.07;;;1.07;;
11241;SDS011;5678;52.370;9.006;2023-02-15T06:06:11;1.00;;;1.00;;
11241;SDS011;5678;52.370;9.006;2023-02-15T06:08:40;1.20;;;1.20;;
11241;SDS011;5678;52.370;9.006;2023-02-15T06:11:08;0.90;;;0.90;;
11241;SDS011;5678;52.370;9.006;2023-02-15T06:13:36;1.00;;;1.00;;
11241;SDS011;5678;52.370;9.006;2023-02-15T06:16:04;1.40;;;1.40;;
11241;SDS011;5678;52.370;9.006;2023-02-15T06:18:32;0.90;;;0.90;;
11241;SDS011;5678;52.370;9.006;2023-02-15T06:21:02;1.17;;;1.17;;
11241;SDS011;5678;52.370;9.006;2023-02-15T06:23:30;1.20;;;1.20;;
11241;SDS011;5678;52.370;9.006;2023-02-15T06:25:58;0.97;;;0.97;;
11241;SDS011;5678;52.370;9.006;2023-02-15T06:28:26;0.97;;;0.97;;
11241;SDS011;5678;52.370;9.006;2023-02-15T06:30:54;1.00;;;1.00;;
11241;SDS011;5678;52.370;9.006;2023-02-15T06:33:22;0.77;;;0.77;;
11241;SDS011;5678;52.370;9.006;2023-02-15T06:35:51;0.90;;;0.90;;
11241;SDS011;5678;52.370;9.006;2023-02-15T06:38:20;0.90;;;0.90;;
11241;SDS011;5678;52.370;9.006;2023-02-15T06:40:48;0.97;;;0.97;;
11241;SDS011;5678;52.370;9.006;2023-02-15T06:43:16;1.10;;;1.10;;
11241;SDS011;5678;52.370;9.006;2023-02-15T06:45:44;1.03;;;1.03;;
11241;SDS011;5678;52.370;9.006;2023-02-15T06:48:12;0.57;;;0.57;;
11241;SDS011;5678;52.370;9.006;2023-02-15T06:50:40;1.07;;;1.07;;
11241;SDS011;5678;52.370;9.006;2023-02-15T06:53:08;1.10;;;1.10;;
11241;SDS011;5678;52.370;9.006;2023-02-15T06:55:37;1.03;;;1.03;;
11241;SDS011;5678;52.370;9.006;2023-02-15T06:58:05;1.20;;;1.20;;
11241;SDS011;5678;52.370;9.006;2023-02-15T07:00:33;0.80;;;0.80;;
11241;SDS011;5678;52.370;9.006;2023-02-15T07:03:01;1.13;;;1.13;;
11241;SDS011;5678;52.370;9.006;2023-02-15T07:05:32;0.80;;;0.80;;
11241;SDS011;5678;52.370;9.006;2023-02-15T07:08:01;1.00;;;1.00;;
11241;SDS011;5678;52.370;9.006;2023-02-15T07:10:29;1.00;;;1.00;;
11241;SDS011;5678;52.370;9.006;2023-02-15T07:12:58;1.10;;;1.10;;
11241;SDS011;5678;52.370;9.006;2023-02-15T07:15:25;0.70;;;0.70;;
11241;SDS011;5678;52.370;9.006;2023-02-15T07:17:53;1.10;;;1.10;;
11241;SDS011;5678;52.370;9.006;2023-02-15T07:20:22;0.70;;;0.70;;
11241;SDS011;5678;52.370;9.006;2023-02-15T07:22:51;0.97;;;0.97;;
11241;SDS011;5678;52.370;9.006;2023-02-15T07:25:19;1.00;;;1.00;;
11241;SDS011;5678;52.370;9.006;2023-02-15T07:27:47;0.63;;;0.63;;
11241;SDS011;5678;52.370;9.006;2023-02-15T07:30:16;0.87;;;0.87;;
11241;SDS011;5678;52.370;9.006;2023-02-15T07:32:44;1.10;;;1.10;;
11241;SDS011;5678;52.370;9.006;2023-02-15T07:35:31;0.77;;;0.77;;
11241;SDS011;5678;52.370;9.006;2023-02-15T07:37:59;0.77;;;0.77;;
11241;SDS011;5678;52.370;9.006;2023-02-15T07:40:27;0.93;;;0.93;;
11241;SDS011;5678;52.370;9.006;2023-02-15T07:42:56;0.60;;;0.60;;
11241;SDS011;5678;52.370;9.006;2023-02-15T07:45:27;0.80;;;0.80;;
11241;SDS011;5678;52.370;9.006;2023-02-15T07:47:55;0.87;;;0.87;;
11241;SDS011;5678;52.370;9.006;2023-02-15T07:50:23;0.70;;;0.70;;
11241;SDS011;5678;52.370;9.006;2023-02-15T07:52:51;1.10;;;1.10;;
11241;SDS011;5678;52.370;9.006;2023-02-15T07:55:19;1.03;;;1.03;;
11241;SDS011;5678;52.370;9.006;2023-02-15T07:57:48;0.70;;;0.70;;
11241;SDS011;5678;52.370;9.006;2023-02-15T08:00:17;0.73;;;0.73;;
11241;SDS011;5678;52.370;9.006;2023-02-15T08:02:51;0.73;;;0.73;;
11241;SDS011;5678;52.370;9.006;2023-02-15T08:05:35;0.70;;;0.70;;
11241;SDS011;5678;52.370;9.006;2023-02-15T08:08:03;0.70;;;0.70;;
11241;SDS011;5678;52.370;9.006;2023-02-15T08:10:31;0.80;;;0.80;;
11241;SDS011;5678;52.370;9.006;2023-02-15T08:13:17;0.40;;;0.40;;
11241;SDS011;5678;52.370;9.006;2023-02-15T08:15:47;0.43;;;0.43;;
11241;SDS011;5678;52.370;9.006;2023-02-15T08:18:17;0.70;;;0.70;;
11241;SDS011;5678;52.370;9.006;2023-02-15T08:20:48;0.40;;;0.40;;
11241;SDS011;5678;52.370;9.006;2023-02-15T08:23:17;0.90;;;0.90;;
11241;SDS011;5678;52.370;9.006;2023-02-15T08:25:45;0.33;;;0.33;;
11241;SDS011;5678;52.370;9.006;2023-02-15T08:28:13;0.67;;;0.67;;
11241;SDS011;5678;52.370;9.006;2023-02-15T08:30:41;0.50;;;0.50;;
11241;SDS011;5678;52.370;9.006;2023-02-15T08:33:09;0.60;;;0.60;;
11241;SDS011;5678;52.370;9.006;2023-02-15T08:35:39;0.60;;;0.60;;
11241;SDS011;5678;52.370;9.006;2023-02-15T08:38:06;0.40;;;0.40;;
11241;SDS011;5678;52.370;9.006;2023-02-15T08:40:34;0.50;;;0.50;;
11241;SDS011;5678;52.370;9.006;2023-02-15T08:43:04;0.80;;;0.80;;
11241;SDS011;5678;52.370;9.006;2023-02-15T08:45:33;0.47;;;0.47;;
11241;SDS011;5678;52.370;9.006;2023-02-15T08:48:01;0.40;;;0.40;;
11241;SDS011;5678;52.370;9.006;2023-02-15T08:50:29;0.60;;;0.60;;
11241;SDS011;5678;52.370;9.006;2023-02-15T08:52:58;0.30;;;0.30;;
11241;SDS011;5678;52.370;9.006;2023-02-15T08:55:26;0.50;;;0.50;;
11241;SDS011;5678;52.370;9.006;2023-02-15T08:57:54;0.37;;;0.37;;
11241;SDS011;5678;52.370;9.006;2023-02-15T09:00:22;0.47;;;0.47;;
11241;SDS011;5678;52.370;9.006;2023-02-15T09:02:51;0.50;;;0.50;;
11241;SDS011;5678;52.370;9.006;2023-02-15T09:05:19;0.37;;;0.37;;
11241;SDS011;5678;52.370;9.006;2023-02-15T09:07:47;0.40;;;0.40;;
11241;SDS011;5678;52.370;9.006;2023-02-15T09:10:17;0.30;;;0.30;;
11241;SDS011;5678;52.370;9.006;2023-02-15T09:12:44;0.30;;;0.30;;
11241;SDS011;5678;52.370;9.006;2023-02-15T09:15:12;0.30;;;0.30;;
11241;SDS011;5678;52.370;9.006;2023-02-15T09:17:41;0.40;;;0.40;;
11241;SDS011;5678;52.370;9.006;2023-02-15T09:20:09;0.30;;;0.30;;
11241;SDS011;5678;52.370;9.006;2023-02-15T09:22:38;0.30;;;0.30;;
11241;SDS011;5678;52.370;9.006;2023-02-15T09:25:06;0.30;;;0.30;;
11241;SDS011;5678;52.370;9.006;2023-02-15T09:27:36;0.30;;;0.30;;
11241;SDS011;5678;52.370;9.006;2023-02-15T09:30:05;0.30;;;0.30;;
11241;SDS011;5678;52.370;9.006;2023-02-15T09:32:33;0.40;;;0.40;;
11241;SDS011;5678;52.370;9.006;2023-02-15T09:35:01;0.30;;;0.30;;
11241;SDS011;5678;52.370;9.006;2023-02-15T09:37:29;0.40;;;0.40;;
11241;SDS011;5678;52.370;9.006;2023-02-15T09:39:57;0.30;;;0.30;;
11241;SDS011;5678;52.370;9.006;2023-02-15T09:42:46;0.30;;;0.30;;
11241;SDS011;5678;52.370;9.006;2023-02-15T09:45:26;0.30;;;0.30;;
11241;SDS011;5678;52.370;9.006;2023-02-15T09:48:22;0.30;;;0.30;;
11241;SDS011;5678;52.370;9.006;2023-02-15T09:51:08;0.37;;;0.37;;
11241;SDS011;5678;52.370;9.006;2023-02-15T09:53:58;0.40;;;0.40;;
11241;SDS011;5678;52.370;9.006;2023-02-15T09:56:37;0.30;;;0.30;;
11241;SDS011;5678;52.370;9.006;2023-02-15T09:59:13;0.30;;;0.30;;
11241;SDS011;5678;52.370;9.006;2023-02-15T10:01:50;0.40;;;0.40;;
11241;SDS011;5678;52.370;9.006;2023-02-15T10:04:29;0.30;;;0.30;;
11241;SDS011;5678;52.370;9.006;2023-02-15T10:07:20;0.40;;;0.40;;
11241;SDS011;5678;52.370;9.006;2023-02-15T10:10:02;0.30;;;0.30;;
11241;SDS011;5678;52.370;9.006;2023-02-15T10:12:41;0.30;;;0.30;;
11241;SDS011;5678;52.370;9.006;2023-02-15T10:15:29;0.30;;;0.30;;
11241;SDS011;5678;52.370;9.006;2023-02-15T10:18:23;0.50;;;0.50;;
11241;SDS011;5678;52.370;9.006;2023-02-15T10:21:05;0.30;;;0.30;;
11241;SDS011;5678;52.370;9.006;2023-02-15T10:23:43;0.50;;;0.50;;
11241;SDS011;5678;52.370;9.006;2023-02-15T10:26:24;0.40;;;0.40;;
11241;SDS011;5678;52.370;9.006;2023-02-15T10:28:56;0.30;;;0.30;;
11241;SDS011;5678;52.370;9.006;2023-02-15T10:31:33;0.30;;;0.30;;
11241;SDS011;5678;52.370;9.006;2023-02-15T10:34:13;0.33;;;0.33;;
11241;SDS011;5678;52.370;9.006;2023-02-15T10:36:48;0.40;;;0.40;;
11241;SDS011;5678;52.370;9.006;2023-02-15T10:39:28;0.40;;;0.40;;
11241;SDS011;5678;52.370;9.006;2023-02-15T10:42:02;0.30;;;0.30;;
11241;SDS011;5678;52.370;9.006;2023-02-15T10:44:41;0.33;;;0.33;;
11241;SDS011;5678;52.370;9.006;2023-02-15T10:47:29;0.30;;;0.30;;
11241;SDS011;5678;52.370;9.006;2023-02-15T10:50:20;0.40;;;0.40;;
11241;SDS011;5678;52.370;9.006;2023-02-15T10:52:59;0.50;;;0.50;;
11241;SDS011;5678;52.370;9.006;2023-02-15T10:55:45;0.40;;;0.40;;
11241;SDS011;5678;52.370;9.006;2023-02-15T10:58:22;0.63;;;0.63;;
11241;SDS011;5678;52.370;9.006;2023-02-15T11:00:58;0.40;;;0.40;;
11241;SDS011;5678;52.370;9.006;2023-02-15T11:03:46;0.30;;;0.30;;
11241;SDS011;5678;52.370;9.006;2023-02-15T11:06:34;0.40;;;0.40;;
11241;SDS011;5678;52.370;9.006;2023-02-15T11:09:04;0.30;;;0.30;;
11241;SDS011;5678;52.370;9.006;2023-02-15T11:11:38;0.37;;;0.37;;
11241;SDS011;5678;52.370;9.006;2023-02-15T11:14:10;0.30;;;0.30;;
11241;SDS011;5678;52.370;9.006;2023-02-15T11:16:42;0.20;;;0.20;;
11241;SDS011;5678;52.370;9.006;2023-02-15T11:19:16;0.40;;;0.40;;
11241;SDS011;5678;52.370;9.006;2023-02-15T11:21:49;0.40;;;0.40;;
11241;SDS011;5678;52.370;9.006;2023-02-15T11:24:20;0.27;;;0.27;;
11241;SDS011;5678;52.370;9.006;2023-02-15T11:26:54;0.37;;;0.37;;
11241;SDS011;5678;52.370;9.006;2023-02-15T11:29:28;0.43;;;0.43;;
11241;SDS011;5678;52.370;9.006;2023-02-15T11:32:01;0.40;;;0.40;;
11241;SDS011;5678;52.370;9.006;2023-02-15T11:34:44;0.40;;;0.40;;
11241;SDS011;5678;52.370;9.006;2023-02-15T11:37:17;0.30;;;0.30;;
11241;SDS011;5678;52.370;9.006;2023-02-15T11:39:46;0.43;;;0.43;;
11241;SDS011;5678;52.370;9.006;2023-02-15T11:42:18;0.33;;;0.33;;
11241;SDS011;5678;52.370;9.006;2023-02-15T11:44:52;0.30;;;0.30;;
11241;SDS011;5678;52.370;9.006;2023-02-15T11:47:25;0.40;;;0.40;;
11241;SDS011;5678;52.370;9.006;2023-02-15T11:49:55;0.30;;;0.30;;
11241;SDS011;5678;52.370;9.006;2023-02-15T11:52:23;0.30;;;0.30;;
11241;SDS011;5678;52.370;9.006;2023-02-15T11:54:51;0.30;;;0.30;;
11241;SDS011;5678;52.370;9.006;2023-02-15T11:57:22;0.47;;;0.47;;
11241;SDS011;5678;52.370;9.006;2023-02-15T11:59:56;0.40;;;0.40;;
11241;SDS011;5678;52.370;9.006;2023-02-15T12:02:30;0.30;;;0.30;;
11241;SDS011;5678;52.370;9.006;2023-02-15T12:05:03;0.30;;;0.30;;
11241;SDS011;5678;52.370;9.006;2023-02-15T12:07:35;0.20;;;0.20;;
11241;SDS011;5678;52.370;9.006;2023-02-15T12:10:15;0.67;;;0.67;;
11241;SDS011;5678;52.370;9.006;2023-02-15T12:12:46;0.40;;;0.40;;
11241;SDS011;5678;52.370;9.006;2023-02-15T12:15:14;0.30;;;0.30;;
11241;SDS011;5678;52.370;9.006;2023-02-15T12:17:56;0.40;;;0.40;;
11241;SDS011;5678;52.370;9.006;2023-02-15T12:20:28;0.30;;;0.30;;
11241;SDS011;5678;52.370;9.006;2023-02-15T12:22:59;0.30;;;0.30;;
11241;SDS011;5678;52.370;9.006;2023-02-15T12:25:32;0.50;;;0.50;;
11241;SDS011;5678;52.370;9.006;2023-02-15T12:28:03;0.30;;;0.30;;
11241;SDS011;5678;52.370;9.006;2023-02-15T12:30:43;0.50;;;0.50;;
11241;SDS011;5678;52.370;9.006;2023-02-15T12:33:13;0.40;;;0.40;;
11241;SDS011;5678;52.370;9.006;2023-02-15T12:35:45;0.33;;;0.33;;
11241;SDS011;5678;52.370;9.006;2023-02-15T12:38:21;0.30;;;0.30;;
11241;SDS011;5678;52.370;9.006;2023-02-15T12:40:56;0.27;;;0.27;;
11241;SDS011;5678;52.370;9.006;2023-02-15T12:43:26;0.40;;;0.40;;
11241;SDS011;5678;52.370;9.006;2023-02-15T12:48:45;0.30;;;0.30;;
11241;SDS011;5678;52.370;9.006;2023-02-15T12:51:15;0.40;;;0.40;;
11241;SDS011;5678;52.370;9.006;2023-02-15T12:53:43;0.30;;;0.30;;
11241;SDS011;5678;52.370;9.006;2023-02-15T12:56:11;0.37;;;0.37;;
11241;SDS011;5678;52.370;9.006;2023-02-15T12:58:39;0.33;;;0.33;;
11241;SDS011;5678;52.370;9.006;2023-02-15T13:01:12;0.30;;;0.30;;
11241;SDS011;5678;52.370;9.006;2023-02-15T13:03:55;0.20;;;0.20;;
11241;SDS011;5678;52.370;9.006;2023-02-15T13:06:28;0.30;;;0.30;;
11241;SDS011;5678;52.370;9.006;2023-02-15T13:09:05;0.40;;;0.40;;
11241;SDS011;5678;52.370;9.006;2023-02-15T13:11:41;0.20;;;0.20;;
11241;SDS011;5678;52.370;9.006;2023-02-15T13:14:16;0.30;;;0.30;;
11241;SDS011;5678;52.370;9.006;2023-02-15T13:16:47;0.30;;;0.30;;
11241;SDS011;5678;52.370;9.006;2023-02-15T13:19:17;0.20;;;0.20;;
11241;SDS011;5678;52.370;9.006;2023-02-15T13:21:52;0.30;;;0.30;;
11241;SDS011;5678;52.370;9.006;2023-02-15T13:24:22;0.37;;;0.37;;
11241;SDS011;5678;52.370;9.006;2023-02-15T13:26:51;0.30;;;0.30;;
11241;SDS011;5678;52.370;9.006;2023-02-15T13:29:40;0.20;;;0.20;;
11241;SDS011;5678;52.370;9.006;2023-02-15T13:32:12;0.40;;;0.40;;
11241;SDS011;5678;52.370;9.006;2023-02-15T13:34:52;0.37;;;0.37;;
11241;SDS011;5678;52.370;9.006;2023-02-15T13:37:31;0.40;;;0.40;;
11241;SDS011;5678;52.370;9.006;2023-02-15T13:40:18;0.30;;;0.30;;
11241;SDS011;5678;52.370;9.006;2023-02-15T13:42:51;0.27;;;0.27;;
11241;SDS011;5678;52.370;9.006;2023-02-15T13:45:27;0.30;;;0.30;;
11241;SDS011;5678;52.370;9.006;2023-02-15T13:48:01;0.40;;;0.40;;
11241;SDS011;5678;52.370;9.006;2023-02-15T13:50:43;0.30;;;0.30;;
11241;SDS011;5678;52.370;9.006;2023-02-15T13:53:31;0.30;;;0.30;;
11241;SDS011;5678;52.370;9.006;2023-02-15T13:56:17;0.30;;;0.30;;
11241;SDS011;5678;52.370;9.006;2023-02-15T13:58:58;0.40;;;0.40;;
11241;SDS011;5678;52.370;9.006;2023-02-15T14:01:45;0.30;;;0.30;;
11241;SDS011;5678;52.370;9.006;2023-02-15T14:04:24;0.30;;;0.30;;
11241;SDS011;5678;52.370;9.006;2023-02-15T14:07:08;0.30;;;0.30;;
11241;SDS011;5678;52.370;9.006;2023-02-15T14:10:05;0.30;;;0.30;;
11241;SDS011;5678;52.370;9.006;2023-02-15T14:12:51;0.30;;;0.30;;
11241;SDS011;5678;52.370;9.006;2023-02-15T14:15:32;0.37;;;0.37;;
11241;SDS011;5678;52.370;9.006;2023-02-15T14:18:11;0.20;;;0.20;;
11241;SDS011;5678;52.370;9.006;2023-02-15T14:20:47;0.30;;;0.30;;
11241;SDS011;5678;52.370;9.006;2023-02-15T14:23:29;0.23;;;0.23;;
11241;SDS011;5678;52.370;9.006;2023-02-15T14:26:08;0.30;;;0.30;;
11241;SDS011;5678;52.370;9.006;2023-02-15T14:28:43;0.30;;;0.30;;
11241;SDS011;5678;52.370;9.006;2023-02-15T14:31:18;0.20;;;0.20;;
11241;SDS011;5678;52.370;9.006;2023-02-15T14:33:56;0.40;;;0.40;;
11241;SDS011;5678;52.370;9.006;2023-02-15T14:36:24;0.30;;;0.30;;
11241;SDS011;5678;52.370;9.006;2023-02-15T14:39:00;0.30;;;0.30;;
11241;SDS011;5678;52.370;9.006;2023-02-15T14:42:01;0.20;;;0.20;;
11241;SDS011;5678;52.370;9.006;2023-02-15T14:44:38;0.20;;;0.20;;
11241;SDS011;5678;52.370;9.006;2023-02-15T14:47:13;0.40;;;0.40;;
11241;SDS011;5678;52.370;9.006;2023-02-15T14:49:46;0.30;;;0.30;;
11241;SDS011;5678;52.370;9.006;2023-02-15T14:52:14;0.30;;;0.30;;
11241;SDS011;5678;52.370;9.006;2023-02-15T14:54:55;0.43;;;0.43;;
11241;SDS011;5678;52.370;9.006;2023-02-15T14:57:27;0.27;;;0.27;;
11241;SDS011;5678;52.370;9.006;2023-02-15T15:00:03;0.30;;;0.30;;
11241;SDS011;5678;52.370;9.006;2023-02-15T15:03:09;0.30;;;0.30;;
11241;SDS011;5678;52.370;9.006;2023-02-15T15:05:50;0.40;;;0.40;;
11241;SDS011;5678;52.370;9.006;2023-02-15T15:08:22;0.30;;;0.30;;
11241;SDS011;5678;52.370;9.006;2023-02-15T15:10:55;0.30;;;0.30;;
11241;SDS011;5678;52.370;9.006;2023-02-15T15:16:24;0.30;;;0.30;;
11241;SDS011;5678;52.370;9.006;2023-02-15T15:18:57;0.40;;;0.40;;
11241;SDS011;5678;52.370;9.006;2023-02-15T15:24:48;0.30;;;0.30;;
11241;SDS011;5678;52.370;9.006;2023-02-15T15:27:37;0.27;;;0.27;;
11241;SDS011;5678;52.370;9.006;2023-02-15T15:36:19;0.30;;;0.30;;
11241;SDS011;5678;52.370;9.006;2023-02-15T15:39:18;0.30;;;0.30;;
11241;SDS011;5678;52.370;9.006;2023-02-15T15:42:01;0.20;;;0.20;;
11241;SDS011;5678;52.370;9.006;2023-02-15T15:47:58;0.53;;;0.53;;
11241;SDS011;5678;52.370;9.006;2023-02-15T15:50:36;0.30;;;0.30;;
11241;SDS011;5678;52.370;9.006;2023-02-15T15:53:06;0.40;;;0.40;;
11241;SDS011;5678;52.370;9.006;2023-02-15T15:55:46;0.30;;;0.30;;
11241;SDS011;5678;52.370;9.006;2023-02-15T15:58:16;0.30;;;0.30;;
11241;SDS011;5678;52.370;9.006;2023-02-15T16:00:46;0.50;;;0.50;;
11241;SDS011;5678;52.370;9.006;2023-02-15T16:03:20;0.30;;;0.30;;
11241;SDS011;5678;52.370;9.006;2023-02-15T16:05:50;0.30;;;0.30;;
11241;SDS011;5678;52.370;9.006;2023-02-15T16:08:29;0.30;;;0.30;;
11241;SDS011;5678;52.370;9.006;2023-02-15T16:10:58;0.40;;;0.40;;
11241;SDS011;5678;52.370;9.006;2023-02-15T16:13:30;0.20;;;0.20;;
11241;SDS011;5678;52.370;9.006;2023-02-15T16:15:58;0.40;;;0.40;;
11241;SDS011;5678;52.370;9.006;2023-02-15T16:18:26;0.37;;;0.37;;
11241;SDS011;5678;52.370;9.006;2023-02-15T16:20:57;0.50;;;0.50;;
11241;SDS011;5678;52.370;9.006;2023-02-15T16:26:37;0.40;;;0.40;;
11241;SDS011;5678;52.370;9.006;2023-02-15T16:29:25;0.40;;;0.40;;
11241;SDS011;5678;52.370;9.006;2023-02-15T16:31:58;0.50;;;0.50;;
11241;SDS011;5678;52.370;9.006;2023-02-15T16:34:27;0.30;;;0.30;;
11241;SDS011;5678;52.370;9.006;2023-02-15T16:37:18;0.30;;;0.30;;
11241;SDS011;5678;52.370;9.006;2023-02-15T16:39:48;0.40;;;0.40;;
11241;SDS011;5678;52.370;9.006;2023-02-15T16:42:16;0.40;;;0.40;;
11241;SDS011;5678;52.370;9.006;2023-02-15T16:44:47;0.50;;;0.50;;
11241;SDS011;5678;52.370;9.006;2023-02-15T16:47:19;0.50;;;0.50;;
11241;SDS011;5678;52.370;9.006;2023-02-15T16:49:52;0.40;;;0.40;;
11241;SDS011;5678;52.370;9.006;2023-02-15T16:52:24;0.40;;;0.40;;
11241;SDS011;5678;52.370;9.006;2023-02-15T16:54:54;0.30;;;0.30;;
11241;SDS011;5678;52.370;9.006;2023-02-15T16:57:24;0.40;;;0.40;;
11241;SDS011;5678;52.370;9.006;2023-02-15T16:59:55;0.50;;;0.50;;
11241;SDS011;5678;52.370;9.006;2023-02-15T17:02:29;0.40;;;0.40;;
11241;SDS011;5678;52.370;9.006;2023-02-15T17:05:19;0.40;;;0.40;;
11241;SDS011;5678;52.370;9.006;2023-02-15T17:08:04;0.30;;;0.30;;
11241;SDS011;5678;52.370;9.006;2023-02-15T17:10:34;0.40;;;0.40;;
11241;SDS011;5678;52.370;9.006;2023-02-15T17:13:09;0.30;;;0.30;;
11241;SDS011;5678;52.370;9.006;2023-02-15T17:16:06;0.30;;;0.30;;
11241;SDS011;5678;52.370;9.006;2023-02-15T17:18:50;0.30;;;0.30;;
11241;SDS011;5678;52.370;9.006;2023-02-15T17:21:20;0.50;;;0.50;;
11241;SDS011;5678;52.370;9.006;2023-02-15T17:23:56;0.30;;;0.30;;
11241;SDS011;5678;52.370;9.006;2023-02-15T17:26:26;0.50;;;0.50;;
11241;SDS011;5678;52.370;9.006;2023-02-15T17:28:58;0.40;;;0.40;;
11241;SDS011;5678;52.370;9.006;2023-02-15T17:31:29;0.40;;;0.40;;
11241;SDS011;5678;52.370;9.006;2023-02-15T17:33:59;0.40;;;0.40;;
11241;SDS011;5678;52.370;9.006;2023-02-15T17:36:28;0.33;;;0.33;;
11241;SDS011;5678;52.370;9.006;2023-02-15T17:39:06;0.30;;;0.30;;
11241;SDS011;5678;52.370;9.006;2023-02-15T17:41:48;0.40;;;0.40;;
11241;SDS011;5678;52.370;9.006;2023-02-15T17:44:19;0.47;;;0.47;;
11241;SDS011;5678;52.370;9.006;2023-02-15T17:46:47;0.50;;;0.50;;
11241;SDS011;5678;52.370;9.006;2023-02-15T17:49:24;0.40;;;0.40;;
11241;SDS011;5678;52.370;9.006;2023-02-15T17:51:54;0.40;;;0.40;;
11241;SDS011;5678;52.370;9.006;2023-02-15T17:54:25;0.50;;;0.50;;
11241;SDS011;5678;52.370;9.006;2023-02-15T17:57:11;0.40;;;0.40;;
11241;SDS011;5678;52.370;9.006;2023-02-15T17:59:40;0.33;;;0.33;;
11241;SDS011;5678;52.370;9.006;2023-02-15T18:02:26;0.40;;;0.40;;
11241;SDS011;5678;52.370;9.006;2023-02-15T18:05:16;0.30;;;0.30;;
11241;SDS011;5678;52.370;9.006;2023-02-15T18:08:01;0.50;;;0.50;;
11241;SDS011;5678;52.370;9.006;2023-02-15T18:10:48;0.40;;;0.40;;
11241;SDS011;5678;52.370;9.006;2023-02-15T18:13:33;0.43;;;0.43;;
11241;SDS011;5678;52.370;9.006;2023-02-15T18:16:01;0.50;;;0.50;;
11241;SDS011;5678;52.370;9.006;2023-02-15T18:18:29;0.40;;;0.40;;
11241;SDS011;5678;52.370;9.006;2023-02-15T18:20:57;0.33;;;0.33;;
11241;SDS011;5678;52.370;9.006;2023-02-15T18:23:25;0.30;;;0.30;;
11241;SDS011;5678;52.370;9.006;2023-02-15T18:25:55;0.40;;;0.40;;
11241;SDS011;5678;52.370;9.006;2023-02-15T18:28:23;0.43;;;0.43;;
11241;SDS011;5678;52.370;9.006;2023-02-15T18:30:50;0.50;;;0.50;;
11241;SDS011;5678;52.370;9.006;2023-02-15T18:33:33;0.30;;;0.30;;
11241;SDS011;5678;52.370;9.006;2023-02-15T18:36:03;0.40;;;0.40;;
11241;SDS011;5678;52.370;9.006;2023-02-15T18:38:33;0.40;;;0.40;;
11241;SDS011;5678;52.370;9.006;2023-02-15T18:41:02;0.40;;;0.40;;
11241;SDS011;5678;52.370;9.006;2023-02-15T18:43:30;0.30;;;0.30;;
11241;SDS011;5678;52.370;9.006;2023-02-15T18:45:58;0.30;;;0.30;;
11241;SDS011;5678;52.370;9.006;2023-02-15T18:48:26;0.40;;;0.40;;
11241;SDS011;5678;52.370;9.006;2023-02-15T18:50:54;0.40;;;0.40;;
11241;SDS011;5678;52.370;9.006;2023-02-15T18:53:22;0.50;;;0.50;;
11241;SDS011;5678;52.370;9.006;2023-02-15T18:55:50;0.40;;;0.40;;
11241;SDS011;5678;52.370;9.006;2023-02-15T18:58:20;0.40;;;0.40;;
11241;SDS011;5678;52.370;9.006;2023-02-15T19:00:49;0.40;;;0.40;;
11241;SDS011;5678;52.370;9.006;2023-02-15T19:03:18;0.40;;;0.40;;
11241;SDS011;5678;52.370;9.006;2023-02-15T19:05:46;0.30;;;0.30;;
11241;SDS011;5678;52.370;9.006;2023-02-15T19:08:15;0.50;;;0.50;;
11241;SDS011;5678;52.370;9.006;2023-02-15T19:10:47;0.30;;;0.30;;
11241;SDS011;5678;52.370;9.006;2023-02-15T19:13:15;0.40;;;0.40;;
11241;SDS011;5678;52.370;9.006;2023-02-15T19:15:44;0.40;;;0.40;;
11241;SDS011;5678;52.370;9.006;2023-02-15T19:18:12;0.50;;;0.50;;
11241;SDS011;5678;52.370;9.006;2023-02-15T19:20:41;0.30;;;0.30;;